Dunnville, KY

3:40 AM EDT on July 26, 2014 (GMT -0400)
Balcony Bend (KKYJAMES2) Elev 817 ft | 36.97 °N, 85.06 °W | Change Station

Current weather conditions updated 30 seconds ago

Scattered Clouds
Scattered Clouds
65.2 °F
Feels Like 65.2 °F
N
0.0
Wind Variable Wind from SW
Gusts 0.0 mph

Today is forecast to be Much Warmer than yesterday.

Today
High -- | Low -- °F
--% Chance of Precip.
Yesterday
High -- | Low -- °F
Precip. -- in
6:40 AM 8:52 PM
Waning Crescent, 0% visible
Pressure 30.05 in
Visibility 10.0 miles
Clouds Scattered Clouds 12000 ft
Dew Point 64 °F
Humidity 95%
Rainfall -999.00 in
Snow Depth Not available.
UV 0 out of 12
Pollen 4.20 out of 12
Air Quality Not available.
Flu Activity Not available.
METAR KSME 260735Z AUTO 00000KT 10SM SCT120 16/16 A3005 RMK AO2

More Conditions Fewer Conditions

Pressure 30.05 in
Visibility 10.0 miles
Clouds Scattered Clouds 12000 ft
Dew Point 64 °F
Humidity 95%
Rainfall -999.00 in
Snow Depth Not available.
UV 0 out of 12
Pollen 4.20 out of 12
Air Quality Not available.
Flu Activity Not available.
METAR KSME 260735Z AUTO 00000KT 10SM SCT120 16/16 A3005 RMK AO2

More Conditions Fewer Conditions

10-Day Weather Forecast

Almanac

Astronomy

Jul. 26, 2014 Rise Set
Actual Time 6:40 AM EDT 8:52 PM EDT
Civil Twilight 6:11 AM EDT 9:22 PM EDT
Nautical Twilight 5:35 AM EDT 9:57 PM EDT
Astronomical Twilight 4:55 AM EDT 10:36 PM EDT
Moon 6:30 AM EDT 8:29 PM EDT
Length of Visible Light 15h 11m
Length of Day
14h 12m
Tomorrow will be 1m 37s shorter.
Waning Crescent, 0% of the Moon is Illuminated
Today
Waning Crescent
Jul 26
New
Aug 3
First Quarter
Aug 10
Full
Aug 17
Last Quarter

Today's Extremes

State Highs State Lows

Community

WunderPhotos

Upload Photos

1,737,527 photos uploaded!

Nearby

Snow Depth

Station Depth Elevation
No new snow has been reported.

Earthquake Activity

City Distance Mag. Time & Date
No recent earthquake activity has been reported nearby.
Minimum magnitude displayed is 2.5.

Coastal Water Temperatures

Place Temperature
No Stations Reporting

Nearby Weather Stations

Station Location Temp. Dew Point Humidity Wind Precip. Elev Updated Type
Balcony Bend, Jamestown, KY 65.2 °F 64 °F 95% SW  at  0.0 mph 0.00 in / hr 817 ft 2:40 AM CDT Normal
Redman Avenue, Campbellsville, KY 65.1 °F 63 °F 92% SSE  at  0.0 mph 0.00 in / hr 837 ft 3:40 AM EDT Rapid Fire
Columbia, KY 67.1 °F 62 °F 85% South  at  0.0 mph 0.00 in / hr 1033 ft 2:40 AM CDT Rapid Fire
Clay Hill Memorial Forest, Campbellsville, KY 67.3 °F 63 °F 86% SE  at  0.0 mph 0.00 in / hr 955 ft 2:17 AM EDT Normal

Show More Stations Show Fewer Stations